sensor_id;sensor_type;location;lat;lon;timestamp;pressure;altitude;pressure_sealevel;temperature;humidity
58622;BME280;44389;51.578;5.456;2023-03-26T00:01:27;100613.84;;;6.46;100.00
58622;BME280;44389;51.578;5.456;2023-03-26T00:03:53;100608.84;;;6.49;100.00
58622;BME280;44389;51.578;5.456;2023-03-26T00:06:25;100608.50;;;6.41;100.00
58622;BME280;44389;51.578;5.456;2023-03-26T00:08:51;100611.81;;;6.39;100.00
58622;BME280;44389;51.578;5.456;2023-03-26T00:11:18;100613.25;;;6.32;100.00
58622;BME280;44389;51.578;5.456;2023-03-26T00:13:45;100613.97;;;6.30;100.00
58622;BME280;44389;51.578;5.456;2023-03-26T00:16:11;100613.19;;;6.31;100.00
58622;BME280;44389;51.578;5.456;2023-03-26T00:18:39;100615.34;;;6.21;100.00
58622;BME280;44389;51.578;5.456;2023-03-26T00:21:07;100621.31;;;6.22;100.00
58622;BME280;44389;51.578;5.456;2023-03-26T00:23:33;100626.31;;;6.19;100.00
58622;BME280;44389;51.578;5.456;2023-03-26T00:26:00;100620.25;;;6.17;100.00
58622;BME280;44389;51.578;5.456;2023-03-26T00:28:25;100618.25;;;6.09;100.00
58622;BME280;44389;51.578;5.456;2023-03-26T00:31:00;100612.19;;;6.07;100.00
58622;BME280;44389;51.578;5.456;2023-03-26T00:33:26;100611.84;;;6.00;100.00
58622;BME280;44389;51.578;5.456;2023-03-26T00:35:53;100605.59;;;5.94;100.00
58622;BME280;44389;51.578;5.456;2023-03-26T00:38:20;100599.53;;;5.92;100.00
58622;BME280;44389;51.578;5.456;2023-03-26T00:40:47;100598.47;;;5.87;100.00
58622;BME280;44389;51.578;5.456;2023-03-26T00:43:15;100585.47;;;5.83;100.00
58622;BME280;44389;51.578;5.456;2023-03-26T00:45:47;100586.06;;;5.77;100.00
58622;BME280;44389;51.578;5.456;2023-03-26T00:48:13;100581.84;;;5.77;100.00
58622;BME280;44389;51.578;5.456;2023-03-26T00:50:39;100578.34;;;5.75;100.00
58622;BME280;44389;51.578;5.456;2023-03-26T00:53:05;100591.19;;;5.77;100.00
58622;BME280;44389;51.578;5.456;2023-03-26T00:55:33;100586.22;;;5.80;100.00
58622;BME280;44389;51.578;5.456;2023-03-26T00:57:58;100588.09;;;5.84;100.00
58622;BME280;44389;51.578;5.456;2023-03-26T01:00:29;100591.47;;;5.83;100.00
58622;BME280;44389;51.578;5.456;2023-03-26T01:02:57;100582.19;;;5.85;100.00
58622;BME280;44389;51.578;5.456;2023-03-26T01:07:59;100572.03;;;5.87;100.00
58622;BME280;44389;51.578;5.456;2023-03-26T01:10:25;100567.75;;;5.87;100.00
58622;BME280;44389;51.578;5.456;2023-03-26T01:12:51;100554.06;;;5.85;100.00
58622;BME280;44389;51.578;5.456;2023-03-26T01:15:16;100557.28;;;5.81;100.00
58622;BME280;44389;51.578;5.456;2023-03-26T01:17:41;100543.44;;;5.76;100.00
58622;BME280;44389;51.578;5.456;2023-03-26T01:20:14;100545.72;;;5.70;100.00
58622;BME280;44389;51.578;5.456;2023-03-26T01:22:45;100533.72;;;5.69;100.00
58622;BME280;44389;51.578;5.456;2023-03-26T01:25:11;100538.56;;;5.63;100.00
58622;BME280;44389;51.578;5.456;2023-03-26T01:30:15;100536.69;;;5.58;100.00
58622;BME280;44389;51.578;5.456;2023-03-26T01:37:49;100520.78;;;5.46;100.00
58622;BME280;44389;51.578;5.456;2023-03-26T01:40:26;100512.97;;;5.43;100.00
58622;BME280;44389;51.578;5.456;2023-03-26T01:43:27;100502.75;;;5.43;100.00
58622;BME280;44389;51.578;5.456;2023-03-26T01:45:56;100507.81;;;5.41;100.00
58622;BME280;44389;51.578;5.456;2023-03-26T01:48:29;100507.81;;;5.41;100.00
58622;BME280;44389;51.578;5.456;2023-03-26T01:50:55;100501.69;;;5.38;100.00
58622;BME280;44389;51.578;5.456;2023-03-26T01:53:23;100506.72;;;5.36;100.00
58622;BME280;44389;51.578;5.456;2023-03-26T01:56:05;100502.47;;;5.37;100.00
58622;BME280;44389;51.578;5.456;2023-03-26T01:58:56;100504.09;;;5.35;100.00
58622;BME280;44389;51.578;5.456;2023-03-26T02:01:29;100496.44;;;5.35;100.00
58622;BME280;44389;51.578;5.456;2023-03-26T02:06:39;100486.13;;;5.33;100.00
58622;BME280;44389;51.578;5.456;2023-03-26T02:09:20;100479.47;;;5.37;100.00
58622;BME280;44389;51.578;5.456;2023-03-26T02:11:48;100481.00;;;5.33;100.00
58622;BME280;44389;51.578;5.456;2023-03-26T02:14:15;100471.69;;;5.34;100.00
58622;BME280;44389;51.578;5.456;2023-03-26T02:16:40;100458.84;;;5.32;100.00
58622;BME280;44389;51.578;5.456;2023-03-26T02:19:10;100463.22;;;5.35;100.00
58622;BME280;44389;51.578;5.456;2023-03-26T02:21:39;100449.63;;;5.36;100.00
58622;BME280;44389;51.578;5.456;2023-03-26T02:24:05;100446.13;;;5.34;100.00
58622;BME280;44389;51.578;5.456;2023-03-26T02:26:32;100448.69;;;5.34;100.00
58622;BME280;44389;51.578;5.456;2023-03-26T02:28:58;100446.19;;;5.35;100.00
58622;BME280;44389;51.578;5.456;2023-03-26T02:31:25;100448.81;;;5.37;100.00
58622;BME280;44389;51.578;5.456;2023-03-26T02:33:52;100445.47;;;5.38;100.00
58622;BME280;44389;51.578;5.456;2023-03-26T02:36:18;100442.78;;;5.35;100.00
58622;BME280;44389;51.578;5.456;2023-03-26T02:38:46;100442.63;;;5.32;100.00
58622;BME280;44389;51.578;5.456;2023-03-26T02:41:11;100441.03;;;5.34;100.00
58622;BME280;44389;51.578;5.456;2023-03-26T02:43:36;100430.81;;;5.34;100.00
58622;BME280;44389;51.578;5.456;2023-03-26T02:46:02;100429.09;;;5.34;100.00
58622;BME280;44389;51.578;5.456;2023-03-26T02:48:27;100429.31;;;5.39;100.00
58622;BME280;44389;51.578;5.456;2023-03-26T02:50:52;100427.69;;;5.41;100.00
58622;BME280;44389;51.578;5.456;2023-03-26T02:53:21;100419.38;;;5.45;100.00
58622;BME280;44389;51.578;5.456;2023-03-26T02:55:48;100417.63;;;5.44;100.00
58622;BME280;44389;51.578;5.456;2023-03-26T02:58:13;100414.25;;;5.45;100.00
58622;BME280;44389;51.578;5.456;2023-03-26T03:00:41;100413.63;;;5.51;100.00
58622;BME280;44389;51.578;5.456;2023-03-26T03:03:07;100404.16;;;5.48;100.00
58622;BME280;44389;51.578;5.456;2023-03-26T03:05:34;100399.91;;;5.49;100.00
58622;BME280;44389;51.578;5.456;2023-03-26T03:08:02;100399.16;;;5.51;100.00
58622;BME280;44389;51.578;5.456;2023-03-26T03:10:28;100402.56;;;5.50;100.00
58622;BME280;44389;51.578;5.456;2023-03-26T03:12:57;100394.88;;;5.50;100.00
58622;BME280;44389;51.578;5.456;2023-03-26T03:15:22;100394.06;;;5.51;100.00
58622;BME280;44389;51.578;5.456;2023-03-26T03:17:48;100387.44;;;5.56;100.00
58622;BME280;44389;51.578;5.456;2023-03-26T03:20:13;100378.94;;;5.56;100.00
58622;BME280;44389;51.578;5.456;2023-03-26T03:22:39;100380.72;;;5.58;100.00
58622;BME280;44389;51.578;5.456;2023-03-26T03:25:05;100369.66;;;5.58;100.00
58622;BME280;44389;51.578;5.456;2023-03-26T03:27:33;100369.81;;;5.63;100.00
58622;BME280;44389;51.578;5.456;2023-03-26T03:29:58;100368.97;;;5.62;100.00
58622;BME280;44389;51.578;5.456;2023-03-26T03:32:24;100360.41;;;5.61;100.00
58622;BME280;44389;51.578;5.456;2023-03-26T03:34:50;100362.16;;;5.63;100.00
58622;BME280;44389;51.578;5.456;2023-03-26T03:37:16;100355.44;;;5.65;100.00
58622;BME280;44389;51.578;5.456;2023-03-26T03:39:42;100358.91;;;5.67;100.00
58622;BME280;44389;51.578;5.456;2023-03-26T03:42:08;100357.31;;;5.69;100.00
58622;BME280;44389;51.578;5.456;2023-03-26T03:44:33;100353.13;;;5.71;100.00
58622;BME280;44389;51.578;5.456;2023-03-26T03:46:59;100349.69;;;5.70;100.00
58622;BME280;44389;51.578;5.456;2023-03-26T03:49:25;100345.56;;;5.74;100.00
58622;BME280;44389;51.578;5.456;2023-03-26T03:51:50;100350.69;;;5.74;100.00
58622;BME280;44389;51.578;5.456;2023-03-26T03:54:15;100345.63;;;5.75;100.00
58622;BME280;44389;51.578;5.456;2023-03-26T03:56:40;100346.66;;;5.79;100.00
58622;BME280;44389;51.578;5.456;2023-03-26T03:59:06;100343.28;;;5.80;100.00
58622;BME280;44389;51.578;5.456;2023-03-26T04:01:33;100340.72;;;5.80;100.00
58622;BME280;44389;51.578;5.456;2023-03-26T04:03:58;100329.69;;;5.81;100.00
58622;BME280;44389;51.578;5.456;2023-03-26T04:06:24;100327.13;;;5.81;100.00
58622;BME280;44389;51.578;5.456;2023-03-26T04:08:50;100323.81;;;5.84;100.00
58622;BME280;44389;51.578;5.456;2023-03-26T04:11:16;100327.25;;;5.84;100.00
58622;BME280;44389;51.578;5.456;2023-03-26T04:13:41;100317.00;;;5.84;100.00
58622;BME280;44389;51.578;5.456;2023-03-26T04:16:07;100305.19;;;5.86;100.00
58622;BME280;44389;51.578;5.456;2023-03-26T04:18:33;100299.16;;;5.86;100.00
58622;BME280;44389;51.578;5.456;2023-03-26T04:20:58;100296.66;;;5.87;100.00
58622;BME280;44389;51.578;5.456;2023-03-26T04:23:27;100292.38;;;5.86;100.00
58622;BME280;44389;51.578;5.456;2023-03-26T04:25:54;100292.44;;;5.88;100.00
58622;BME280;44389;51.578;5.456;2023-03-26T04:28:35;100286.44;;;5.87;100.00
58622;BME280;44389;51.578;5.456;2023-03-26T04:31:08;100279.59;;;5.86;100.00
58622;BME280;44389;51.578;5.456;2023-03-26T04:33:36;100270.19;;;5.85;100.00
58622;BME280;44389;51.578;5.456;2023-03-26T04:36:03;100266.81;;;5.86;100.00
58622;BME280;44389;51.578;5.456;2023-03-26T04:38:30;100269.38;;;5.86;100.00
58622;BME280;44389;51.578;5.456;2023-03-26T04:41:00;100259.13;;;5.86;100.00
58622;BME280;44389;51.578;5.456;2023-03-26T04:43:25;100253.13;;;5.86;100.00
58622;BME280;44389;51.578;5.456;2023-03-26T04:45:51;100253.19;;;5.87;100.00
58622;BME280;44389;51.578;5.456;2023-03-26T04:48:17;100251.53;;;5.88;100.00
58622;BME280;44389;51.578;5.456;2023-03-26T04:50:45;100242.91;;;5.86;100.00
58622;BME280;44389;51.578;5.456;2023-03-26T04:53:13;100246.25;;;5.85;100.00
58622;BME280;44389;51.578;5.456;2023-03-26T04:55:48;100245.41;;;5.84;100.00
58622;BME280;44389;51.578;5.456;2023-03-26T04:58:15;100230.06;;;5.84;100.00
58622;BME280;44389;51.578;5.456;2023-03-26T05:00:41;100227.50;;;5.84;100.00
58622;BME280;44389;51.578;5.456;2023-03-26T05:03:09;100224.94;;;5.84;100.00
58622;BME280;44389;51.578;5.456;2023-03-26T05:05:34;100224.00;;;5.82;100.00
58622;BME280;44389;51.578;5.456;2023-03-26T05:07:59;100214.47;;;5.78;100.00
58622;BME280;44389;51.578;5.456;2023-03-26T05:10:25;100214.63;;;5.81;100.00
58622;BME280;44389;51.578;5.456;2023-03-26T05:12:50;100211.97;;;5.80;100.00
58622;BME280;44389;51.578;5.456;2023-03-26T05:15:15;100206.00;;;5.79;100.00
58622;BME280;44389;51.578;5.456;2023-03-26T05:17:41;100205.06;;;5.77;100.00
58622;BME280;44389;51.578;5.456;2023-03-26T05:20:27;100202.50;;;5.77;100.00
58622;BME280;44389;51.578;5.456;2023-03-26T05:22:54;100199.38;;;5.84;100.00
58622;BME280;44389;51.578;5.456;2023-03-26T05:25:20;100196.56;;;5.78;100.00
58622;BME280;44389;51.578;5.456;2023-03-26T05:27:46;100186.25;;;5.75;100.00
58622;BME280;44389;51.578;5.456;2023-03-26T05:30:14;100193.91;;;5.75;100.00
58622;BME280;44389;51.578;5.456;2023-03-26T05:32:39;100181.19;;;5.76;100.00
58622;BME280;44389;51.578;5.456;2023-03-26T05:35:05;100180.19;;;5.73;100.00
58622;BME280;44389;51.578;5.456;2023-03-26T05:37:31;100172.56;;;5.74;100.00
58622;BME280;44389;51.578;5.456;2023-03-26T05:39:57;100169.97;;;5.73;100.00
58622;BME280;44389;51.578;5.456;2023-03-26T05:42:24;100170.00;;;5.74;100.00
58622;BME280;44389;51.578;5.456;2023-03-26T05:44:49;100171.16;;;5.81;100.00
58622;BME280;44389;51.578;5.456;2023-03-26T05:47:14;100171.94;;;5.80;100.00
58622;BME280;44389;51.578;5.456;2023-03-26T05:49:40;100166.06;;;5.83;100.00
58622;BME280;44389;51.578;5.456;2023-03-26T05:52:05;100165.19;;;5.82;100.00
58622;BME280;44389;51.578;5.456;2023-03-26T05:54:31;100160.06;;;5.82;100.00
58622;BME280;44389;51.578;5.456;2023-03-26T05:56:56;100166.19;;;5.86;100.00
58622;BME280;44389;51.578;5.456;2023-03-26T05:59:22;100162.63;;;5.82;100.00
58622;BME280;44389;51.578;5.456;2023-03-26T06:01:48;100160.22;;;5.85;100.00
58622;BME280;44389;51.578;5.456;2023-03-26T06:04:15;100158.47;;;5.84;100.00
58622;BME280;44389;51.578;5.456;2023-03-26T06:06:41;100161.88;;;5.85;100.00
58622;BME280;44389;51.578;5.456;2023-03-26T06:09:07;100158.47;;;5.84;100.00
58622;BME280;44389;51.578;5.456;2023-03-26T06:11:32;100147.38;;;5.84;100.00
58622;BME280;44389;51.578;5.456;2023-03-26T06:13:58;100154.19;;;5.85;100.00
58622;BME280;44389;51.578;5.456;2023-03-26T06:16:24;100139.75;;;5.85;100.00
58622;BME280;44389;51.578;5.456;2023-03-26T06:18:49;100148.34;;;5.87;100.00
58622;BME280;44389;51.578;5.456;2023-03-26T06:21:16;100138.84;;;5.85;100.00
58622;BME280;44389;51.578;5.456;2023-03-26T06:23:42;100134.63;;;5.85;100.00
58622;BME280;44389;51.578;5.456;2023-03-26T06:26:08;100129.53;;;5.85;100.00
58622;BME280;44389;51.578;5.456;2023-03-26T06:28:33;100122.75;;;5.87;100.00
58622;BME280;44389;51.578;5.456;2023-03-26T06:31:00;100136.59;;;5.92;100.00
58622;BME280;44389;51.578;5.456;2023-03-26T06:33:25;100130.50;;;5.89;100.00
58622;BME280;44389;51.578;5.456;2023-03-26T06:35:51;100127.88;;;5.87;100.00
58622;BME280;44389;51.578;5.456;2023-03-26T06:38:16;100129.63;;;5.88;100.00
58622;BME280;44389;51.578;5.456;2023-03-26T06:40:41;100124.50;;;5.88;100.00
58622;BME280;44389;51.578;5.456;2023-03-26T06:43:07;100121.94;;;5.88;100.00
58622;BME280;44389;51.578;5.456;2023-03-26T06:45:32;100125.44;;;5.90;100.00
58622;BME280;44389;51.578;5.456;2023-03-26T06:47:57;100121.25;;;5.92;100.00
58622;BME280;44389;51.578;5.456;2023-03-26T06:50:24;100117.88;;;5.93;100.00
58622;BME280;44389;51.578;5.456;2023-03-26T06:52:52;100123.94;;;5.96;100.00
58622;BME280;44389;51.578;5.456;2023-03-26T06:55:18;100128.25;;;5.97;100.00
58622;BME280;44389;51.578;5.456;2023-03-26T06:57:47;100128.31;;;5.98;100.00
58622;BME280;44389;51.578;5.456;2023-03-26T07:00:13;100134.34;;;6.00;100.00
58622;BME280;44389;51.578;5.456;2023-03-26T07:02:39;100128.38;;;6.00;100.00
58622;BME280;44389;51.578;5.456;2023-03-26T07:05:04;100129.22;;;6.00;100.00
58622;BME280;44389;51.578;5.456;2023-03-26T07:07:29;100120.66;;;5.98;100.00
58622;BME280;44389;51.578;5.456;2023-03-26T07:09:55;100125.84;;;6.01;100.00
58622;BME280;44389;51.578;5.456;2023-03-26T07:12:20;100122.41;;;5.99;100.00
58622;BME280;44389;51.578;5.456;2023-03-26T07:14:46;100118.19;;;6.01;100.00
58622;BME280;44389;51.578;5.456;2023-03-26T07:17:11;100115.69;;;6.03;100.00
58622;BME280;44389;51.578;5.456;2023-03-26T07:19:36;100118.25;;;6.03;100.00
58622;BME280;44389;51.578;5.456;2023-03-26T07:22:02;100116.53;;;6.02;100.00
58622;BME280;44389;51.578;5.456;2023-03-26T07:24:27;100115.75;;;6.04;100.00
58622;BME280;44389;51.578;5.456;2023-03-26T07:27:01;100112.31;;;6.04;100.00
58622;BME280;44389;51.578;5.456;2023-03-26T07:34:56;100105.66;;;6.09;100.00
58622;BME280;44389;51.578;5.456;2023-03-26T07:37:46;100097.94;;;6.07;100.00
58622;BME280;44389;51.578;5.456;2023-03-26T07:43:23;100103.44;;;6.18;100.00
58622;BME280;44389;51.578;5.456;2023-03-26T07:45:53;100097.47;;;6.18;100.00
58622;BME280;44389;51.578;5.456;2023-03-26T07:48:26;100094.31;;;6.25;100.00
58622;BME280;44389;51.578;5.456;2023-03-26T07:50:54;100091.63;;;6.22;100.00
58622;BME280;44389;51.578;5.456;2023-03-26T07:53:20;100085.03;;;6.29;100.00
58622;BME280;44389;51.578;5.456;2023-03-26T07:56:10;100095.34;;;6.30;100.00
58622;BME280;44389;51.578;5.456;2023-03-26T07:59:09;100092.03;;;6.33;100.00
58622;BME280;44389;51.578;5.456;2023-03-26T08:07:08;100086.78;;;6.30;100.00
58622;BME280;44389;51.578;5.456;2023-03-26T08:10:01;100085.25;;;6.35;100.00
58622;BME280;44389;51.578;5.456;2023-03-26T08:12:36;100081.78;;;6.33;100.00
58622;BME280;44389;51.578;5.456;2023-03-26T08:15:14;100084.38;;;6.34;100.00
58622;BME280;44389;51.578;5.456;2023-03-26T08:17:58;100086.31;;;6.41;100.00
58622;BME280;44389;51.578;5.456;2023-03-26T08:20:45;100077.88;;;6.44;100.00
58622;BME280;44389;51.578;5.456;2023-03-26T08:23:26;100079.16;;;6.57;100.00
58622;BME280;44389;51.578;5.456;2023-03-26T08:31:17;100073.16;;;6.82;100.00
58622;BME280;44389;51.578;5.456;2023-03-26T08:33:43;100074.13;;;6.86;100.00
58622;BME280;44389;51.578;5.456;2023-03-26T08:36:09;100078.63;;;6.93;100.00
58622;BME280;44389;51.578;5.456;2023-03-26T08:38:35;100078.56;;;6.91;100.00
58622;BME280;44389;51.578;5.456;2023-03-26T08:48:51;100070.56;;;7.08;100.00
58622;BME280;44389;51.578;5.456;2023-03-26T08:51:50;100068.19;;;7.14;100.00
58622;BME280;44389;51.578;5.456;2023-03-26T08:54:46;100074.22;;;7.16;100.00
58622;BME280;44389;51.578;5.456;2023-03-26T08:57:28;100069.88;;;7.14;100.00
58622;BME280;44389;51.578;5.456;2023-03-26T09:23:13;100062.56;;;7.55;100.00
58622;BME280;44389;51.578;5.456;2023-03-26T09:51:05;100059.09;;;8.15;100.00
58622;BME280;44389;51.578;5.456;2023-03-26T09:56:27;100065.16;;;8.17;100.00
58622;BME280;44389;51.578;5.456;2023-03-26T10:15:20;100065.97;;;7.84;100.00
58622;BME280;44389;51.578;5.456;2023-03-26T10:17:55;100078.41;;;7.72;100.00
58622;BME280;44389;51.578;5.456;2023-03-26T10:20:28;100078.88;;;7.57;100.00
58622;BME280;44389;51.578;5.456;2023-03-26T10:28:44;100077.59;;;7.15;100.00
58622;BME280;44389;51.578;5.456;2023-03-26T10:34:12;100069.34;;;6.97;100.00
58622;BME280;44389;51.578;5.456;2023-03-26T10:39:49;100075.00;;;6.86;100.00
58622;BME280;44389;51.578;5.456;2023-03-26T10:45:29;100080.13;;;6.86;100.00
58622;BME280;44389;51.578;5.456;2023-03-26T10:51:23;100079.38;;;6.90;100.00
58622;BME280;44389;51.578;5.456;2023-03-26T10:54:13;100085.44;;;6.92;100.00
58622;BME280;44389;51.578;5.456;2023-03-26T10:56:46;100081.09;;;6.90;100.00
58622;BME280;44389;51.578;5.456;2023-03-26T10:59:14;100081.63;;;7.07;100.00
58622;BME280;44389;51.578;5.456;2023-03-26T11:01:57;100082.13;;;7.24;100.00
58622;BME280;44389;51.578;5.456;2023-03-26T11:07:25;100088.50;;;7.37;100.00
58622;BME280;44389;51.578;5.456;2023-03-26T11:15:49;100089.25;;;7.33;100.00
58622;BME280;44389;51.578;5.456;2023-03-26T11:18:23;100093.41;;;7.29;100.00
58622;BME280;44389;51.578;5.456;2023-03-26T11:21:06;100098.72;;;7.35;100.00
58622;BME280;44389;51.578;5.456;2023-03-26T11:23:34;100099.09;;;7.20;100.00
58622;BME280;44389;51.578;5.456;2023-03-26T11:29:04;100099.81;;;7.44;100.00
58622;BME280;44389;51.578;5.456;2023-03-26T11:34:23;100107.19;;;7.33;100.00
58622;BME280;44389;51.578;5.456;2023-03-26T11:36:53;100107.81;;;7.53;100.00
58622;BME280;44389;51.578;5.456;2023-03-26T11:39:23;100107.16;;;7.60;100.00
58622;BME280;44389;51.578;5.456;2023-03-26T11:41:52;100115.84;;;7.65;100.00
58622;BME280;44389;51.578;5.456;2023-03-26T11:44:26;100115.63;;;7.86;100.00
58622;BME280;44389;51.578;5.456;2023-03-26T11:46:56;100112.91;;;7.82;100.00
58622;BME280;44389;51.578;5.456;2023-03-26T11:49:25;100116.25;;;7.79;100.00
58622;BME280;44389;51.578;5.456;2023-03-26T11:51:51;100113.00;;;7.85;100.00
58622;BME280;44389;51.578;5.456;2023-03-26T11:54:18;100110.66;;;7.93;100.00
58622;BME280;44389;51.578;5.456;2023-03-26T11:56:56;100112.31;;;7.90;100.00
58622;BME280;44389;51.578;5.456;2023-03-26T11:59:28;100123.75;;;8.02;100.00
58622;BME280;44389;51.578;5.456;2023-03-26T12:04:41;100123.97;;;8.10;100.00
58622;BME280;44389;51.578;5.456;2023-03-26T12:07:18;100125.97;;;8.20;100.00
58622;BME280;44389;51.578;5.456;2023-03-26T12:09:52;100122.31;;;8.12;100.00
58622;BME280;44389;51.578;5.456;2023-03-26T12:12:19;100123.47;;;8.23;100.00
58622;BME280;44389;51.578;5.456;2023-03-26T12:14:46;100122.41;;;8.15;100.00
58622;BME280;44389;51.578;5.456;2023-03-26T12:17:14;100132.53;;;8.10;100.00
58622;BME280;44389;51.578;5.456;2023-03-26T12:19:48;100126.41;;;8.05;100.00
58622;BME280;44389;51.578;5.456;2023-03-26T12:22:34;100136.03;;;8.12;100.00
58622;BME280;44389;51.578;5.456;2023-03-26T12:25:23;100138.75;;;8.18;100.00
58622;BME280;44389;51.578;5.456;2023-03-26T12:30:31;100140.59;;;8.22;100.00
58622;BME280;44389;51.578;5.456;2023-03-26T12:33:04;100138.75;;;8.18;100.00
58622;BME280;44389;51.578;5.456;2023-03-26T12:35:34;100138.91;;;8.24;100.00
58622;BME280;44389;51.578;5.456;2023-03-26T12:38:34;100138.50;;;8.41;100.00
58622;BME280;44389;51.578;5.456;2023-03-26T12:41:05;100141.31;;;8.49;100.00
58622;BME280;44389;51.578;5.456;2023-03-26T12:43:38;100147.31;;;8.49;100.00
58622;BME280;44389;51.578;5.456;2023-03-26T12:46:31;100146.94;;;8.67;100.00
58622;BME280;44389;51.578;5.456;2023-03-26T12:49:04;100137.88;;;8.82;100.00
58622;BME280;44389;51.578;5.456;2023-03-26T12:51:47;100143.91;;;8.82;100.00
58622;BME280;44389;51.578;5.456;2023-03-26T12:54:40;100145.78;;;8.89;100.00
58622;BME280;44389;51.578;5.456;2023-03-26T12:57:23;100137.72;;;8.76;100.00
58622;BME280;44389;51.578;5.456;2023-03-26T13:02:58;100148.69;;;8.70;100.00
58622;BME280;44389;51.578;5.456;2023-03-26T13:15:58;100164.22;;;8.73;100.00
58622;BME280;44389;51.578;5.456;2023-03-26T13:18:46;100169.94;;;8.63;100.00
58622;BME280;44389;51.578;5.456;2023-03-26T13:21:32;100164.25;;;8.44;100.00
58622;BME280;44389;51.578;5.456;2023-03-26T13:26:54;100171.78;;;8.06;100.00
58622;BME280;44389;51.578;5.456;2023-03-26T13:32:18;100186.59;;;7.58;100.00
58622;BME280;44389;51.578;5.456;2023-03-26T13:35:17;100187.22;;;7.51;100.00
58622;BME280;44389;51.578;5.456;2023-03-26T13:37:58;100185.72;;;7.31;100.00
58622;BME280;44389;51.578;5.456;2023-03-26T13:48:40;100194.63;;;7.15;100.00
58622;BME280;44389;51.578;5.456;2023-03-26T13:51:20;100195.69;;;7.21;100.00
58622;BME280;44389;51.578;5.456;2023-03-26T13:53:56;100195.69;;;7.21;100.00
58622;BME280;44389;51.578;5.456;2023-03-26T13:56:35;100199.22;;;7.25;100.00
58622;BME280;44389;51.578;5.456;2023-03-26T13:59:10;100200.03;;;7.24;100.00
58622;BME280;44389;51.578;5.456;2023-03-26T14:01:41;100199.84;;;7.18;100.00
58622;BME280;44389;51.578;5.456;2023-03-26T14:07:02;100216.50;;;7.05;100.00
58622;BME280;44389;51.578;5.456;2023-03-26T14:09:37;100217.13;;;6.98;100.00
58622;BME280;44389;51.578;5.456;2023-03-26T14:15:01;100221.00;;;6.86;100.00
58622;BME280;44389;51.578;5.456;2023-03-26T14:17:42;100233.72;;;6.83;100.00
58622;BME280;44389;51.578;5.456;2023-03-26T14:23:06;100231.78;;;6.78;100.00
58622;BME280;44389;51.578;5.456;2023-03-26T14:31:42;100250.47;;;6.75;100.00
58622;BME280;44389;51.578;5.456;2023-03-26T14:41:49;100270.09;;;6.50;100.00
58622;BME280;44389;51.578;5.456;2023-03-26T14:44:29;100278.47;;;6.46;100.00
58622;BME280;44389;51.578;5.456;2023-03-26T14:47:14;100285.34;;;6.47;100.00
58622;BME280;44389;51.578;5.456;2023-03-26T14:55:02;100296.38;;;6.69;100.00
58622;BME280;44389;51.578;5.456;2023-03-26T14:57:49;100302.59;;;6.75;100.00
58622;BME280;44389;51.578;5.456;2023-03-26T15:00:30;100304.34;;;6.77;100.00
58622;BME280;44389;51.578;5.456;2023-03-26T15:11:18;100317.19;;;6.78;100.00
58622;BME280;44389;51.578;5.456;2023-03-26T15:13:58;100319.91;;;6.83;100.00
58622;BME280;44389;51.578;5.456;2023-03-26T15:22:07;100338.25;;;6.94;100.00
58622;BME280;44389;51.578;5.456;2023-03-26T15:25:01;100336.22;;;6.85;100.00
58622;BME280;44389;51.578;5.456;2023-03-26T15:39:39;100367.03;;;6.64;100.00
58622;BME280;44389;51.578;5.456;2023-03-26T15:43:17;100365.44;;;6.67;100.00
58622;BME280;44389;51.578;5.456;2023-03-26T15:59:06;100402.44;;;6.74;100.00
58622;BME280;44389;51.578;5.456;2023-03-26T16:01:45;100408.16;;;6.68;100.00
58622;BME280;44389;51.578;5.456;2023-03-26T16:04:39;100412.53;;;6.71;100.00
58622;BME280;44389;51.578;5.456;2023-03-26T16:07:34;100415.03;;;6.69;100.00
58622;BME280;44389;51.578;5.456;2023-03-26T16:10:27;100421.03;;;6.70;100.00
58622;BME280;44389;51.578;5.456;2023-03-26T16:15:42;100431.28;;;6.70;100.00
58622;BME280;44389;51.578;5.456;2023-03-26T16:20:54;100441.50;;;6.70;100.00
58622;BME280;44389;51.578;5.456;2023-03-26T16:33:50;100468.16;;;6.52;100.00
58622;BME280;44389;51.578;5.456;2023-03-26T16:36:32;100475.69;;;6.49;100.00
58622;BME280;44389;51.578;5.456;2023-03-26T16:47:16;100503.38;;;6.37;100.00
58622;BME280;44389;51.578;5.456;2023-03-26T16:50:05;100510.84;;;6.32;100.00
58622;BME280;44389;51.578;5.456;2023-03-26T16:52:53;100520.97;;;6.29;100.00
58622;BME280;44389;51.578;5.456;2023-03-26T16:55:42;100526.91;;;6.28;100.00
58622;BME280;44389;51.578;5.456;2023-03-26T17:00:53;100543.44;;;6.15;99.79
58622;BME280;44389;51.578;5.456;2023-03-26T17:06:08;100550.56;;;6.03;98.65
58622;BME280;44389;51.578;5.456;2023-03-26T17:08:58;100564.09;;;6.00;100.00
58622;BME280;44389;51.578;5.456;2023-03-26T17:14:30;100574.78;;;5.91;99.91
58622;BME280;44389;51.578;5.456;2023-03-26T17:19:57;100590.94;;;5.90;99.38
58622;BME280;44389;51.578;5.456;2023-03-26T17:22:42;100600.16;;;5.87;99.77
58622;BME280;44389;51.578;5.456;2023-03-26T17:25:17;100597.47;;;5.84;100.00
58622;BME280;44389;51.578;5.456;2023-03-26T17:30:34;100613.63;;;5.83;100.00
58622;BME280;44389;51.578;5.456;2023-03-26T17:38:02;100638.84;;;5.75;100.00
58622;BME280;44389;51.578;5.456;2023-03-26T17:40:42;100635.31;;;5.73;97.72
58622;BME280;44389;51.578;5.456;2023-03-26T17:43:10;100648.78;;;5.69;97.22
58622;BME280;44389;51.578;5.456;2023-03-26T17:45:38;100656.31;;;5.66;97.07
58622;BME280;44389;51.578;5.456;2023-03-26T17:48:08;100651.84;;;5.61;93.64
58622;BME280;44389;51.578;5.456;2023-03-26T17:50:40;100660.97;;;5.56;94.47
58622;BME280;44389;51.578;5.456;2023-03-26T17:53:29;100666.75;;;5.52;95.80
58622;BME280;44389;51.578;5.456;2023-03-26T17:56:12;100688.75;;;5.49;94.89